Latest Weather Observations for Troughton Island

IDW60801

Issued at 8:23 am WST Thursday 21 June 2018 (issued every 10 minutes, with the page automatically refreshed every 10 minutes)

About weather observations | Map of weather stations | Latest weather observations for WA | Other Formats
Station Details ID: 001007 Name: TROUGHTON ISLAND Lat: -13.75 Lon: 126.15 Height: 6.0 m
Data from the previous 72 hours. | See also: Recent months at Troughton Island
Date/Time
WST
Temp
°C
App
Temp
°C
Dew
Point
°C
Rel
Hum
%
Delta-T
°C
Wind Press
QNH
hPa
Press
MSL
hPa
Rain since
9am
mm
Dir  Spd
km/h
Gust
km/h
Spd
kts
Gust
kts
21/08:00am 26.8 22.7 12.8 42 8.1 ESE 26 32 14 17 1017.5 1017.4 0.0
21/07:30am 26.3 24.3 15.4 51 6.6 ESE 20 26 11 14 1017.2 1017.1 0.0
21/07:00am 25.7 24.4 16.8 58 5.5 SE 19 22 10 12 1016.9 1016.8 0.0
21/06:30am 24.1 24.4 18.7 72 3.4 SE 15 17 8 9 1016.5 1016.4 0.0
21/06:00am 23.6 23.9 18.7 74 3.1 S 15 17 8 9 1016.3 1016.2 0.0
21/05:30am 23.5 24.5 19.4 78 2.6 S 13 17 7 9 1016.0 1015.9 0.0
21/05:00am 23.2 24.4 19.8 81 2.2 S 13 17 7 9 1015.7 1015.6 0.0
21/04:30am 23.1 24.7 19.9 82 2.1 S 11 15 6 8 1015.5 1015.4 0.0
21/04:00am 22.8 24.4 19.2 80 2.3 S 9 11 5 6 1015.5 1015.4 0.0
21/03:30am 23.7 24.7 19.4 77 2.8 SSW 13 17 7 9 1015.5 1015.4 0.0
21/03:00am 23.6 24.2 18.5 73 3.2 SSW 13 15 7 8 1015.5 1015.4 0.0
21/02:30am 23.6 23.5 17.8 70 3.6 S 15 17 8 9 1015.3 1015.2 0.0
21/02:00am 23.6 24.2 18.5 73 3.2 S 13 17 7 9 1015.4 1015.3 0.0
21/01:30am 23.2 23.4 17.7 71 3.4 SSE 13 15 7 8 1015.8 1015.7 0.0
21/01:00am 23.7 23.2 17.0 66 4.1 SE 15 17 8 9 1016.1 1016.0 0.0
21/12:30am 23.7 22.5 16.2 63 4.6 SE 17 19 9 10 1016.3 1016.2 0.0
21/12:00am 24.3 23.9 18.0 68 3.9 SE 17 20 9 11 1016.3 1016.2 0.0
 
Date/Time
WST
Temp
°C
App
Temp
°C
Dew
Point
°C
Rel
Hum
%
Delta-T
°C
Wind Press
QNH
hPa
Press
MSL
hPa
Rain since
9am
mm
Dir  Spd
km/h
Gust
km/h
Spd
kts
Gust
kts
20/11:30pm 24.8 24.5 19.2 71 3.6 SE 19 20 10 11 1016.4 1016.3 0.0
20/11:00pm 25.3 25.0 18.2 64 4.5 ESE 17 20 9 11 1016.4 1016.3 0.0
20/10:30pm 25.4 25.1 19.1 68 4.0 E 19 20 10 11 1016.5 1016.4 0.0
20/10:00pm 25.4 25.8 19.8 71 3.6 E 17 20 9 11 1016.7 1016.6 0.0
20/09:30pm 25.8 25.9 19.9 70 3.8 E 19 22 10 12 1016.8 1016.7 0.0
20/09:00pm 25.8 25.7 19.9 70 3.8 ENE 20 24 11 13 1016.7 1016.6 0.0
20/08:30pm 25.8 25.9 19.9 70 3.8 E 19 24 10 13 1016.5 1016.4 0.0
20/08:00pm 26.0 25.9 19.9 69 4.0 E 20 24 11 13 1016.4 1016.3 0.0
20/07:30pm 26.1 24.9 19.2 65 4.4 ENE 24 28 13 15 1016.3 1016.2 0.0
20/07:00pm 26.2 25.4 19.3 65 4.4 ENE 22 30 12 16 1015.9 1015.8 0.0
20/06:30pm 26.2 24.8 18.9 64 4.7 NE 24 30 13 16 1015.5 1015.4 0.0
20/06:00pm 26.1 24.4 19.0 65 4.5 NE 26 33 14 18 1015.2 1015.1 0.0
20/05:30pm 26.2 24.3 18.6 63 4.8 NE 26 33 14 18 1014.9 1014.8 0.0
20/05:00pm 26.3 24.1 18.7 63 4.8 ENE 28 35 15 19 1014.6 1014.5 0.0
20/04:30pm 26.7 23.9 18.3 60 5.3 ENE 30 37 16 20 1014.4 1014.3 0.0
20/04:00pm 27.2 24.7 18.8 60 5.4 ENE 30 39 16 21 1014.2 1014.1 0.0
20/03:30pm 27.6 24.7 18.0 55 6.1 ENE 30 37 16 20 1014.1 1014.0 0.0
20/03:00pm 28.0 25.8 18.7 57 6.0 ENE 28 33 15 18 1014.1 1014.0 0.0
20/02:30pm 28.1 25.1 16.7 50 7.1 ENE 28 35 15 19 1014.2 1014.1 0.0
20/02:00pm 28.4 25.8 17.9 53 6.7 ENE 28 35 15 19 1014.4 1014.3 0.0
20/01:30pm 28.8 26.5 17.7 51 7.0 E 26 32 14 17 1014.8 1014.7 0.0
20/01:00pm 29.1 26.9 17.0 48 7.6 E 24 28 13 15 1014.8 1014.7 0.0
20/12:30pm 29.4 27.4 15.5 43 8.5 E 20 24 11 13 1015.1 1015.0 0.0
20/12:00pm 30.5 28.1 15.4 40 9.3 E 22 28 12 15 1015.3 1015.2 0.0
20/11:30am 29.3 26.1 13.1 37 9.6 ESE 22 28 12 15 1015.8 1015.7 0.0
20/11:00am 28.7 25.2 13.4 39 9.1 ESE 24 32 13 17 1016.2 1016.1 0.0
20/10:30am 28.7 23.0 11.3 34 10.0 E 32 37 17 20 1016.5 1016.4 0.0
20/10:00am 28.7 24.1 13.4 39 9.1 E 30 35 16 19 1016.8 1016.7 0.0
20/09:30am 27.7 22.5 10.4 34 9.7 ESE 28 39 15 21 1017.0 1016.9 0.0
20/09:00am 27.7 22.3 10.9 35 9.5 ESE 30 35 16 19 1017.4 1017.3 0.0
20/08:30am 27.4 22.0 12.2 39 8.8 SE 32 43 17 23 1017.5 1017.4 0.0
20/08:00am 27.3 22.0 11.3 37 9.1 ESE 30 35 16 19 1017.5 1017.4 0.0
20/07:30am 26.6 21.6 11.1 38 8.8 SE 28 33 15 18 1017.1 1017.0 0.0
20/07:00am 26.1 21.6 12.5 42 7.9 SE 28 32 15 17 1016.7 1016.6 0.0
20/06:30am 25.3 22.9 14.4 50 6.5 SE 20 24 11 13 1016.6 1016.5 0.0
20/06:00am 25.0 22.5 13.5 48 6.7 SE 19 26 10 14 1016.3 1016.2 0.0
20/05:30am 24.6 22.5 13.5 50 6.5 SE 17 20 9 11 1016.2 1016.1 0.0
20/05:00am 24.8 22.1 13.4 49 6.6 SE 20 26 11 14 1016.0 1015.9 0.0
20/04:30am 24.9 21.7 13.1 48 6.9 SE 22 24 12 13 1015.8 1015.7 0.0
20/04:00am 24.9 22.1 13.1 48 6.8 SE 20 24 11 13 1015.8 1015.7 0.0
20/03:30am 25.0 22.5 13.5 48 6.7 SE 19 24 10 13 1015.6 1015.5 0.0
20/03:00am 24.7 24.0 17.4 64 4.5 SE 17 22 9 12 1015.5 1015.4 0.0
20/02:30am 24.5 24.5 18.2 68 4.0 SSE 15 19 8 10 1015.6 1015.5 0.0
20/02:00am 24.5 23.0 15.4 57 5.5 SE 17 20 9 11 1015.9 1015.8 0.0
20/01:30am 24.7 23.2 16.7 61 4.9 SE 20 24 11 13 1016.1 1016.0 0.0
20/01:00am 24.7 23.8 17.7 65 4.4 ESE 19 20 10 11 1016.3 1016.2 0.0
20/12:30am 25.1 24.1 17.6 63 4.7 ESE 19 22 10 12 1016.9 1016.8 0.0
20/12:00am 25.4 24.2 17.6 62 4.9 ESE 20 24 11 13 1017.2 1017.1 0.0
 
Date/Time
WST
Temp
°C
App
Temp
°C
Dew
Point
°C
Rel
Hum
%
Delta-T
°C
Wind Press
QNH
hPa
Press
MSL
hPa
Rain since
9am
mm
Dir  Spd
km/h
Gust
km/h
Spd
kts
Gust
kts
19/11:30pm 25.2 23.7 17.7 63 4.7 ESE 22 26 12 14 1017.1 1017.0 0.0
19/11:00pm 25.1 24.1 18.8 68 4.0 ESE 22 28 12 15 1017.1 1017.0 0.0
19/10:30pm 25.4 24.3 18.6 66 4.3 ESE 22 26 12 14 1017.1 1017.0 0.0
19/10:00pm 25.7 24.3 17.9 62 4.9 ESE 22 28 12 15 1017.3 1017.2 0.0
19/09:30pm 25.9 24.4 17.8 61 5.1 E 22 28 12 15 1017.4 1017.3 0.0
19/09:00pm 26.0 24.6 18.7 64 4.6 E 24 32 13 17 1017.3 1017.2 0.0
19/08:30pm 25.9 24.5 18.8 65 4.5 E 24 30 13 16 1017.2 1017.1 0.0
19/08:00pm 25.7 24.4 19.1 67 4.2 ENE 24 30 13 16 1017.3 1017.2 0.0
19/07:30pm 25.7 23.5 18.6 65 4.5 ENE 28 33 15 18 1017.0 1016.9 0.0
19/07:00pm 25.7 24.1 19.1 67 4.2 ENE 26 30 14 16 1016.6 1016.5 0.0
19/06:30pm 25.6 24.2 18.8 66 4.3 ENE 24 28 13 15 1016.3 1016.2 0.0
19/06:00pm 25.7 24.1 18.4 64 4.6 ENE 24 30 13 16 1016.0 1015.9 0.0
19/05:30pm 25.7 23.8 17.6 61 5.1 ENE 24 30 13 16 1015.7 1015.6 0.0
19/05:00pm 26.2 24.4 17.8 60 5.3 ENE 24 30 13 16 1015.4 1015.3 0.0
19/04:30pm 26.8 24.8 16.4 53 6.4 ENE 22 26 12 14 1015.0 1014.9 0.0
19/04:00pm 27.2 25.6 17.4 55 6.2 ENE 22 26 12 14 1014.6 1014.5 0.0
19/03:30pm 27.8 26.8 17.6 53 6.4 ENE 19 22 10 12 1014.6 1014.5 0.0
19/03:00pm 28.1 26.8 15.7 46 7.6 E 17 20 9 11 1014.6 1014.5 0.0
19/02:30pm 28.4 26.7 14.6 43 8.3 E 17 20 9 11 1014.6 1014.5 0.0
19/02:00pm 29.0 26.8 12.0 35 9.9 ESE 15 19 8 10 1014.6 1014.5 0.0
19/01:30pm 28.9 26.0 11.0 33 10.2 ESE 17 20 9 11 1014.7 1014.6 0.0
19/01:00pm 29.5 26.5 12.0 34 10.2 ESE 19 24 10 13 1015.1 1015.0 0.0
19/12:30pm 29.5 25.7 11.1 32 10.6 ESE 22 26 12 14 1015.5 1015.4 0.0
19/12:00pm 28.5 23.9 9.7 31 10.5 ESE 24 30 13 16 1016.0 1015.9 0.0
19/11:30am 28.3 22.8 9.1 30 10.6 ESE 28 33 15 18 1016.3 1016.2 0.0
19/11:00am 27.7 22.1 10.0 33 9.9 ESE 30 35 16 19 1016.8 1016.7 0.0
19/10:30am 28.1 22.5 10.3 33 10.0 ESE 30 37 16 20 1017.1 1017.0 0.0
19/10:00am 27.1 20.7 9.5 33 9.7 ESE 33 41 18 22 1017.5 1017.4 0.0
19/09:30am 26.7 20.0 9.5 34 9.5 SE 35 44 19 24 1017.5 1017.4 0.0
19/09:00am 26.1 18.3 8.1 32 9.6 ESE 39 46 21 25 1017.6 1017.5 0.0
19/08:30am 26.2 18.6 10.4 37 8.8 ESE 41 46 22 25 1017.9 1017.8 0.0
19/08:00am 25.8 18.2 9.2 35 9.0 ESE 39 46 21 25 1017.9 1017.8 0.0
19/07:30am 24.8 17.7 9.5 38 8.4 SE 37 46 20 25 1017.7 1017.6 0.0
19/07:00am 25.2 19.1 10.3 39 8.3 SE 33 41 18 22 1017.4 1017.3 0.0
19/06:30am 24.2 18.1 10.5 42 7.6 SE 33 43 18 23 1017.2 1017.1 0.0
19/06:00am 24.1 18.6 11.8 46 7.0 SE 32 41 17 22 1016.9 1016.8 0.0
19/05:30am 24.4 18.1 11.0 43 7.5 ESE 35 43 19 23 1016.5 1016.4 0.0
19/05:00am 24.5 18.5 10.8 42 7.6 ESE 33 41 18 22 1016.3 1016.2 0.0
19/04:30am 24.5 19.2 11.1 43 7.5 ESE 30 37 16 20 1016.1 1016.0 0.0
19/04:00am 24.7 19.2 10.6 41 7.8 ESE 30 35 16 19 1015.9 1015.8 0.0
19/03:30am 24.8 19.6 10.3 40 8.0 SE 28 35 15 19 1015.8 1015.7 0.0
19/03:00am 24.4 19.7 10.7 42 7.6 SE 26 32 14 17 1015.8 1015.7 0.0
19/02:30am 24.7 18.7 8.6 36 8.6 SE 30 37 16 20 1015.6 1015.5 0.0
19/02:00am 24.7 19.9 11.6 44 7.4 SE 28 33 15 18 1015.5 1015.4 0.0
19/01:30am 24.7 19.6 10.6 41 7.8 SE 28 33 15 18 1015.6 1015.5 0.0
19/01:00am 24.6 20.0 11.2 43 7.5 SE 26 32 14 17 1015.8 1015.7 0.0
19/12:30am 24.6 20.8 13.5 50 6.5 SE 26 32 14 17 1015.9 1015.8 0.0
19/12:00am 24.7 20.5 13.6 50 6.5 SE 28 32 15 17 1015.9 1015.8 0.0
 
Date/Time
WST
Temp
°C
App
Temp
°C
Dew
Point
°C
Rel
Hum
%
Delta-T
°C
Wind Press
QNH
hPa
Press
MSL
hPa
Rain since
9am
mm
Dir  Spd
km/h
Gust
km/h
Spd
kts
Gust
kts
18/11:30pm 25.3 19.8 11.8 43 7.7 ESE 32 35 17 19 1015.7 1015.6 0.0
18/11:00pm 25.5 21.4 13.7 48 6.9 ESE 28 32 15 17 1015.7 1015.6 0.0
18/10:30pm 25.7 22.2 13.5 46 7.2 ESE 24 30 13 16 1015.6 1015.5 0.0
18/10:00pm 25.9 22.3 13.1 45 7.5 ESE 24 30 13 16 1015.5 1015.4 0.0
18/09:30pm 25.8 21.8 14.0 48 7.0 E 28 33 15 18 1015.5 1015.4 0.0
18/09:00pm 26.0 22.0 14.1 47 7.1 E 28 32 15 17 1015.5 1015.4 0.0
18/08:30pm 25.8 22.5 16.1 55 5.9 E 28 35 15 19 1015.5 1015.4 0.0
18/08:00pm 25.8 23.0 16.4 56 5.8 E 26 32 14 17 1015.6 1015.5 0.0
18/07:30pm 25.8 23.6 16.9 58 5.5 E 24 28 13 15 1015.5 1015.4 0.0
18/07:00pm 25.6 22.9 16.5 57 5.6 ENE 26 30 14 16 1015.4 1015.3 0.0
18/06:30pm 25.7 23.5 16.8 58 5.5 E 24 30 13 16 1015.2 1015.1 0.0
18/06:00pm 25.7 23.3 16.3 56 5.8 ENE 24 30 13 16 1015.0 1014.9 0.0
18/05:30pm 25.8 23.1 15.5 53 6.2 ENE 24 30 13 16 1014.8 1014.7 0.0
18/05:00pm 25.9 23.7 17.0 58 5.5 ENE 24 30 13 16 1014.6 1014.5 0.0
18/04:30pm 26.7 23.9 15.4 50 6.9 ENE 24 30 13 16 1014.1 1014.0 0.0
18/04:00pm 27.1 23.6 14.5 46 7.6 E 26 32 14 17 1013.8 1013.7 0.0
18/03:30pm 27.4 24.1 14.1 44 7.9 E 24 30 13 16 1013.7 1013.6 0.0
18/03:00pm 27.3 23.6 14.0 44 7.9 E 26 32 14 17 1014.0 1013.9 0.0
18/02:30pm 27.2 23.6 15.2 47 7.3 E 28 33 15 18 1014.1 1014.0 0.0
18/02:00pm 27.4 23.6 14.8 46 7.6 E 28 33 15 18 1014.2 1014.1 0.0
18/01:30pm 27.5 23.4 13.8 43 8.1 E 28 33 15 18 1014.3 1014.2 0.0
18/01:00pm 28.2 23.0 10.4 33 10.0 E 28 35 15 19 1014.5 1014.4 0.0
18/12:30pm 27.6 22.2 10.8 35 9.5 ESE 30 39 16 21 1014.8 1014.7 0.0
18/12:00pm 27.2 20.9 9.1 32 9.9 ESE 32 39 17 21 1015.3 1015.2 0.0
18/11:30am 27.6 21.7 11.2 36 9.3 ESE 33 41 18 22 1015.9 1015.8 0.0
18/11:00am 27.5 21.7 11.5 37 9.1 ESE 33 43 18 23 1016.4 1016.3 0.0
18/10:30am 26.4 20.0 9.3 34 9.4 ESE 33 44 18 24 1016.8 1016.7 0.0
18/10:00am 26.4 20.9 12.5 42 8.0 ESE 33 43 18 23 1017.1 1017.0 0.0
18/09:30am 25.9 18.9 10.1 37 8.8 ESE 37 50 20 27 1017.4 1017.3 0.0
18/09:00am 25.2 17.9 10.3 39 8.3 ESE 39 50 21 27 1017.5 1017.4 0.0
18/08:30am 25.0 16.7 9.3 37 8.6 ESE 43 54 23 29 1017.3 1017.2 0.0

Other Formats:

Comma delimited format used in spreadsheet applications
http://www.bom.gov.au/fwo/IDW60801/IDW60801.94102.axf

JavaScript Object Notation format (JSON) in row-major order
http://www.bom.gov.au/fwo/IDW60801/IDW60801.94102.json